Time;durP1;ratioP1;P1;durP2;ratioP2;P2;SDS_P1;SDS_P2;PMS_P1;PMS_P2;Temp;Humidity;BMP_temperature;BMP_pressure;BME280_temperature;BME280_humidity;BME280_pressure;Samples;Min_cycle;Max_cycle;Signal;HPM_P1;HPM_P2
2021/05/28 00:02:06;;;;;;;5.68;1.00;;;8.20;99.90;;;;;;4719693;30;20132;-80
2021/05/28 00:04:32;;;;;;;3.08;1.02;;;8.20;99.90;;;;;;4707604;30;20060;-80
2021/05/28 00:06:59;;;;;;;4.45;1.33;;;8.20;99.90;;;;;;4742455;30;20056;-79
2021/05/28 00:09:25;;;;;;;4.60;1.35;;;8.20;99.90;;;;;;4740422;30;20067;-80
2021/05/28 00:11:52;;;;;;;4.97;1.10;;;8.10;99.90;;;;;;4726112;30;20055;-80
2021/05/28 00:14:19;;;;;;;7.57;1.55;;;8.10;99.90;;;;;;4745908;30;20428;-80
2021/05/28 00:16:46;;;;;;;4.95;1.48;;;8.10;99.90;;;;;;4729596;30;20492;-80
2021/05/28 00:19:13;;;;;;;6.43;1.75;;;8.10;99.90;;;;;;4746467;30;20055;-80
2021/05/28 00:21:39;;;;;;;3.47;1.40;;;8.10;99.90;;;;;;4743883;30;20040;-80
2021/05/28 00:24:06;;;;;;;6.05;1.70;;;8.00;99.90;;;;;;4717296;30;20044;-80
2021/05/28 00:26:33;;;;;;;7.55;1.60;;;8.00;99.90;;;;;;4744867;30;20512;-80
2021/05/28 00:29:12;;;;;;;5.25;1.38;;;8.00;99.90;;;;;;4739781;30;20373;-80
2021/05/28 00:31:39;;;;;;;3.75;1.30;;;8.00;99.90;;;;;;4745513;30;20056;-80
2021/05/28 00:34:06;;;;;;;5.45;1.73;;;7.90;99.90;;;;;;4731015;30;20519;-80
2021/05/28 00:36:32;;;;;;;5.70;1.27;;;7.90;99.90;;;;;;4744468;30;20056;-80
2021/05/28 00:38:59;;;;;;;4.82;1.85;;;7.90;99.90;;;;;;4731489;30;20059;-80
2021/05/28 00:41:25;;;;;;;6.10;1.85;;;7.80;99.90;;;;;;4747178;30;20036;-80
2021/05/28 00:43:52;;;;;;;5.45;1.80;;;7.80;99.90;;;;;;4717440;30;20420;-80
2021/05/28 00:46:19;;;;;;;6.65;2.03;;;7.80;99.90;;;;;;4730305;30;20064;-80
2021/05/28 00:48:48;;;;;;;5.43;1.80;;;7.80;99.90;;;;;;4731421;30;20059;-80
2021/05/28 00:51:15;;;;;;;6.30;2.60;;;7.80;99.90;;;;;;4730830;30;20048;-80
2021/05/28 00:53:41;;;;;;;5.60;1.85;;;7.80;99.90;;;;;;4715806;30;20048;-80
2021/05/28 00:56:08;;;;;;;6.25;2.72;;;7.80;99.90;;;;;;4687695;30;20052;-80
2021/05/28 00:58:35;;;;;;;6.53;2.65;;;7.70;99.90;;;;;;4731275;30;20059;-80
2021/05/28 01:01:02;;;;;;;9.98;2.78;;;7.70;99.90;;;;;;4733116;30;20051;-80
2021/05/28 01:03:28;;;;;;;6.18;2.85;;;7.70;99.90;;;;;;4730607;30;20536;-80
2021/05/28 01:05:55;;;;;;;5.63;2.03;;;7.70;99.90;;;;;;4741362;30;20059;-80
2021/05/28 01:08:21;;;;;;;7.68;2.28;;;7.60;99.90;;;;;;4730379;30;20071;-79
2021/05/28 01:10:48;;;;;;;5.63;2.17;;;7.60;99.90;;;;;;4747632;30;20055;-79
2021/05/28 01:13:15;;;;;;;6.70;1.88;;;7.60;99.90;;;;;;4732829;30;20051;-79
2021/05/28 01:15:42;;;;;;;5.63;1.95;;;7.60;99.90;;;;;;4730634;30;20075;-79
2021/05/28 01:18:09;;;;;;;8.85;2.40;;;7.60;99.90;;;;;;4733302;30;20055;-79
2021/05/28 01:20:36;;;;;;;5.03;2.83;;;7.60;99.90;;;;;;4744870;30;20059;-80
2021/05/28 01:23:05;;;;;;;7.88;3.00;;;7.60;99.90;;;;;;4748611;30;20040;-80
2021/05/28 01:25:32;;;;;;;8.70;4.07;;;7.70;99.90;;;;;;4730891;30;20059;-79
2021/05/28 01:27:58;;;;;;;8.40;4.18;;;7.80;99.90;;;;;;4720506;30;20044;-79
2021/05/28 01:30:26;;;;;;;9.70;4.00;;;7.90;99.90;;;;;;4720684;30;20484;-79
2021/05/28 01:32:53;;;;;;;11.88;5.45;;;7.90;99.90;;;;;;4747107;30;20055;-80
2021/05/28 01:35:20;;;;;;;7.85;3.95;;;8.10;99.90;;;;;;4736098;30;20059;-79
2021/05/28 01:37:47;;;;;;;9.30;5.18;;;8.10;99.90;;;;;;4741333;30;20493;-79
2021/05/28 01:40:15;;;;;;;13.18;6.50;;;8.20;99.90;;;;;;4747001;30;20036;-80
2021/05/28 01:42:42;;;;;;;10.65;6.78;;;8.30;99.90;;;;;;4748345;30;20501;-80
2021/05/28 01:45:09;;;;;;;9.55;5.95;;;8.40;99.90;;;;;;4738236;30;20032;-79
2021/05/28 01:47:35;;;;;;;11.18;6.25;;;8.40;99.90;;;;;;4732377;30;20401;-79
2021/05/28 01:50:03;;;;;;;14.02;5.93;;;8.50;99.90;;;;;;4725384;30;20400;-79
2021/05/28 01:52:30;;;;;;;13.65;5.95;;;8.50;99.90;;;;;;4732281;30;20047;-79
2021/05/28 01:54:57;;;;;;;13.50;5.60;;;8.50;99.90;;;;;;4745912;30;20043;-79
2021/05/28 01:57:23;;;;;;;11.63;5.43;;;8.60;99.90;;;;;;4746974;30;20048;-79
2021/05/28 01:59:50;;;;;;;7.68;5.43;;;8.60;99.90;;;;;;4740112;30;20052;-79
2021/05/28 02:02:16;;;;;;;11.25;7.10;;;8.60;99.90;;;;;;4731766;30;20060;-79
2021/05/28 02:04:43;;;;;;;11.48;6.35;;;8.60;99.90;;;;;;4726948;30;20055;-78
2021/05/28 02:07:10;;;;;;;15.93;8.25;;;8.60;99.90;;;;;;4720357;30;20066;-79
2021/05/28 02:09:44;;;;;;;12.90;7.30;;;8.60;99.90;;;;;;4739949;30;20055;-79
2021/05/28 02:12:11;;;;;;;10.55;6.28;;;8.60;99.90;;;;;;4723932;30;20607;-79
2021/05/28 02:14:37;;;;;;;12.77;7.43;;;8.70;99.90;;;;;;4737110;30;20052;-79
2021/05/28 02:17:04;;;;;;;11.13;6.35;;;8.70;99.90;;;;;;4744342;30;20579;-79
2021/05/28 02:19:31;;;;;;;13.68;8.07;;;8.70;99.90;;;;;;4746451;30;20040;-79
2021/05/28 02:21:57;;;;;;;17.25;8.70;;;8.70;99.90;;;;;;4716837;30;20520;-79
2021/05/28 02:24:24;;;;;;;16.30;10.02;;;8.70;99.90;;;;;;4731454;30;20051;-79
2021/05/28 02:26:52;;;;;;;15.70;9.18;;;8.70;99.90;;;;;;4744889;30;20052;-79
2021/05/28 02:29:19;;;;;;;18.92;11.43;;;8.70;99.90;;;;;;4720590;30;20496;-79
2021/05/28 02:31:46;;;;;;;12.40;8.48;;;8.70;99.90;;;;;;4730605;30;20056;-80
2021/05/28 02:34:12;;;;;;;12.45;8.52;;;8.70;99.90;;;;;;4722128;30;20055;-80
2021/05/28 02:36:39;;;;;;;13.98;8.38;;;8.70;99.90;;;;;;4743798;30;20054;-80
2021/05/28 02:39:07;;;;;;;14.40;10.35;;;8.70;99.90;;;;;;4709895;30;20059;-80
2021/05/28 02:41:34;;;;;;;9.98;7.43;;;8.70;99.90;;;;;;4744952;30;20050;-80
2021/05/28 02:44:01;;;;;;;15.65;9.00;;;8.70;99.90;;;;;;4731053;30;20048;-79
2021/05/28 02:46:29;;;;;;;30.88;13.55;;;8.70;99.90;;;;;;4730066;30;20047;-80
2021/05/28 02:48:55;;;;;;;16.55;10.10;;;8.70;99.90;;;;;;4736007;30;20044;-79
2021/05/28 02:51:22;;;;;;;19.90;10.55;;;8.70;99.90;;;;;;4716397;30;20409;-79
2021/05/28 02:53:48;;;;;;;25.33;13.25;;;8.70;99.90;;;;;;4730980;30;20056;-79
2021/05/28 02:56:15;;;;;;;13.32;8.63;;;8.70;99.90;;;;;;4729088;30;20052;-79
2021/05/28 02:58:42;;;;;;;12.90;8.85;;;8.60;99.90;;;;;;4745044;30;20067;-79
2021/05/28 03:01:08;;;;;;;16.00;10.25;;;8.60;99.90;;;;;;4727926;30;20051;-79
2021/05/28 03:03:34;;;;;;;15.98;9.70;;;8.50;99.90;;;;;;4731125;30;20056;-79
2021/05/28 03:06:03;;;;;;;15.52;9.98;;;8.60;99.90;;;;;;4744482;30;20062;-80
2021/05/28 03:08:30;;;;;;;9.55;6.95;;;8.50;99.90;;;;;;4745238;30;20056;-80
2021/05/28 03:10:57;;;;;;;10.70;7.15;;;8.60;99.90;;;;;;4724614;30;20450;-80
2021/05/28 03:13:24;;;;;;;12.50;8.02;;;8.60;99.90;;;;;;4747420;30;20055;-80
2021/05/28 03:15:50;;;;;;;9.23;6.57;;;8.60;99.90;;;;;;4728875;30;20059;-80
2021/05/28 03:18:20;;;;;;;11.65;7.13;;;8.60;99.90;;;;;;4745603;30;20048;-80
2021/05/28 03:20:48;;;;;;;13.13;8.48;;;8.60;99.90;;;;;;4718470;30;20501;-80
2021/05/28 03:23:15;;;;;;;21.55;9.10;;;8.60;99.90;;;;;;4722036;30;20048;-80
2021/05/28 03:25:43;;;;;;;11.45;8.43;;;8.60;99.90;;;;;;4728748;30;20429;-79
2021/05/28 03:28:10;;;;;;;11.80;7.25;;;8.60;99.90;;;;;;4743469;30;20584;-80
2021/05/28 03:30:37;;;;;;;7.75;5.97;;;8.70;99.90;;;;;;4731053;30;20401;-80
2021/05/28 03:33:05;;;;;;;19.05;7.00;;;8.70;99.90;;;;;;4730961;30;20532;-79
2021/05/28 03:35:32;;;;;;;18.85;8.18;;;8.70;99.90;;;;;;4728362;30;20060;-80
2021/05/28 03:37:58;;;;;;;18.58;8.02;;;8.70;99.90;;;;;;4705922;30;20052;-80
2021/05/28 03:40:25;;;;;;;14.85;7.55;;;8.70;99.90;;;;;;4710135;30;20036;-80
2021/05/28 03:42:52;;;;;;;9.50;6.13;;;8.70;99.90;;;;;;4728609;30;20040;-79
2021/05/28 03:45:18;;;;;;;9.27;6.38;;;8.70;99.90;;;;;;4715824;30;20043;-79
2021/05/28 03:47:45;;;;;;;10.10;6.70;;;8.70;99.90;;;;;;4721827;30;20052;-79
2021/05/28 03:50:12;;;;;;;21.65;10.30;;;8.60;99.90;;;;;;4715784;30;20059;-80
2021/05/28 03:52:38;;;;;;;22.13;12.45;;;8.70;99.90;;;;;;4746416;30;20058;-80
2021/05/28 03:55:06;;;;;;;16.42;11.50;;;8.70;99.90;;;;;;4710730;30;20055;-80
2021/05/28 03:57:32;;;;;;;22.95;12.52;;;8.70;99.90;;;;;;4742485;30;20056;-78
2021/05/28 03:59:59;;;;;;;20.88;12.50;;;8.70;99.90;;;;;;4744287;30;20048;-80
2021/05/28 04:02:25;;;;;;;23.88;13.85;;;8.70;99.90;;;;;;4746333;30;20064;-79
2021/05/28 04:04:52;;;;;;;19.52;11.52;;;8.70;99.90;;;;;;4728398;30;20413;-79
2021/05/28 04:07:18;;;;;;;21.33;11.70;;;8.70;99.90;;;;;;4744795;30;20054;-80
2021/05/28 04:09:45;;;;;;;17.52;10.68;;;8.80;99.90;;;;;;4726595;30;20044;-80
2021/05/28 04:12:11;;;;;;;15.40;9.38;;;8.80;99.90;;;;;;4715511;30;20051;-80
2021/05/28 04:14:38;;;;;;;16.58;10.23;;;8.90;99.90;;;;;;4730726;30;20061;-80
2021/05/28 04:17:04;;;;;;;32.00;18.05;;;8.90;99.90;;;;;;4745276;30;20067;-80
2021/05/28 04:19:31;;;;;;;26.55;14.52;;;9.00;99.90;;;;;;4744582;30;20822;-79
2021/05/28 04:21:57;;;;;;;19.48;11.50;;;9.00;99.90;;;;;;4745648;30;20060;-79
2021/05/28 04:24:24;;;;;;;17.45;10.48;;;9.00;99.90;;;;;;4726072;30;20048;-79
2021/05/28 04:26:50;;;;;;;32.58;14.52;;;9.10;99.90;;;;;;4742569;30;20517;-79
2021/05/28 04:29:19;;;;;;;24.60;11.55;;;9.10;99.90;;;;;;4711044;30;20052;-79
2021/05/28 04:31:46;;;;;;;30.40;11.95;;;9.10;99.90;;;;;;4719324;30;20047;-79
2021/05/28 04:34:12;;;;;;;16.65;10.43;;;9.10;99.90;;;;;;4730376;30;20535;-79
2021/05/28 04:36:39;;;;;;;17.13;10.15;;;9.10;99.90;;;;;;4720747;30;20052;-79
2021/05/28 04:39:06;;;;;;;19.27;10.20;;;9.10;99.90;;;;;;4746037;30;20047;-79
2021/05/28 04:41:32;;;;;;;16.55;9.57;;;9.20;99.90;;;;;;4733099;30;20048;-79
2021/05/28 04:43:59;;;;;;;13.65;9.20;;;9.20;99.90;;;;;;4733612;30;20044;-79
2021/05/28 04:46:25;;;;;;;16.58;8.93;;;9.30;99.90;;;;;;4717885;30;20040;-78
2021/05/28 04:48:52;;;;;;;17.75;10.20;;;9.40;99.90;;;;;;4738693;30;20068;-78
2021/05/28 04:51:18;;;;;;;14.13;8.85;;;9.40;99.90;;;;;;4749214;30;20413;-78
2021/05/28 04:53:45;;;;;;;18.95;11.43;;;9.50;99.90;;;;;;4732863;30;20059;-78
2021/05/28 04:56:11;;;;;;;38.35;26.25;;;9.50;99.90;;;;;;4748428;30;20056;-79
2021/05/28 04:58:38;;;;;;;27.10;16.95;;;9.60;99.90;;;;;;4732883;30;20044;-80
2021/05/28 05:01:04;;;;;;;18.60;12.02;;;9.60;99.90;;;;;;4733373;30;20413;-80
2021/05/28 05:03:31;;;;;;;19.40;11.80;;;9.50;99.90;;;;;;4727378;30;20082;-80
2021/05/28 05:05:57;;;;;;;24.80;11.63;;;9.50;99.90;;;;;;4708249;30;20063;-80
2021/05/28 05:08:24;;;;;;;13.15;8.88;;;9.60;99.90;;;;;;4707438;30;20048;-80
2021/05/28 05:10:50;;;;;;;16.50;10.85;;;9.60;99.90;;;;;;4748722;30;20048;-80
2021/05/28 05:13:17;;;;;;;12.38;8.73;;;9.70;99.90;;;;;;4718312;30;20398;-80
2021/05/28 05:15:44;;;;;;;19.38;10.95;;;9.70;99.90;;;;;;4745536;30;20048;-80
2021/05/28 05:18:10;;;;;;;14.27;10.45;;;9.80;99.90;;;;;;4732754;30;20036;-80
2021/05/28 05:20:37;;;;;;;12.07;9.85;;;9.90;99.90;;;;;;4748998;30;20883;-80
2021/05/28 05:23:05;;;;;;;21.13;10.40;;;9.90;99.90;;;;;;4748629;30;20048;-80
2021/05/28 05:25:32;;;;;;;15.90;10.50;;;10.00;99.90;;;;;;4746036;30;20607;-78
2021/05/28 05:27:59;;;;;;;20.55;12.65;;;10.00;99.90;;;;;;4721656;30;20063;-79
2021/05/28 05:30:25;;;;;;;16.00;11.30;;;10.10;99.90;;;;;;4746954;30;20412;-79
2021/05/28 05:32:52;;;;;;;29.80;22.73;;;10.10;99.90;;;;;;4731098;30;20052;-84
2021/05/28 05:35:19;;;;;;;22.23;14.90;;;10.20;99.90;;;;;;4728470;30;20055;-80
2021/05/28 05:37:45;;;;;;;16.27;11.15;;;10.30;99.90;;;;;;4716579;30;20044;-80
2021/05/28 05:40:20;;;;;;;13.40;10.77;;;10.40;99.90;;;;;;4732026;30;20044;-81
2021/05/28 05:42:46;;;;;;;17.58;11.27;;;10.40;99.90;;;;;;4723979;30;20044;-81
2021/05/28 05:45:15;;;;;;;16.15;10.90;;;10.50;99.90;;;;;;4715816;30;20504;-80
2021/05/28 05:47:42;;;;;;;15.18;10.77;;;10.60;99.90;;;;;;4746597;30;20040;-81
2021/05/28 05:50:10;;;;;;;12.90;9.85;;;10.60;99.90;;;;;;4732270;30;20055;-81
2021/05/28 05:52:37;;;;;;;11.52;9.15;;;10.60;99.90;;;;;;4730999;30;20492;-81
2021/05/28 05:55:04;;;;;;;12.50;9.13;;;10.70;99.90;;;;;;4733257;30;20067;-79
2021/05/28 05:57:31;;;;;;;9.10;7.53;;;10.60;99.90;;;;;;4702536;30;20056;-79
2021/05/28 05:59:57;;;;;;;8.38;7.00;;;10.60;99.90;;;;;;4716971;30;20052;-78
2021/05/28 06:02:24;;;;;;;8.77;7.40;;;10.60;99.90;;;;;;4746101;30;20052;-79
2021/05/28 06:04:50;;;;;;;7.70;6.18;;;10.60;99.90;;;;;;4730112;30;20092;-79
2021/05/28 06:07:17;;;;;;;10.10;7.47;;;10.60;99.90;;;;;;4745564;30;20047;-80
2021/05/28 06:09:43;;;;;;;10.55;7.95;;;10.60;99.90;;;;;;4701663;30;20051;-80
2021/05/28 06:12:10;;;;;;;9.38;8.27;;;10.60;99.90;;;;;;4745511;30;20036;-80
2021/05/28 06:14:36;;;;;;;10.43;7.85;;;10.60;99.90;;;;;;4703730;30;20037;-79
2021/05/28 06:17:05;;;;;;;10.45;8.35;;;10.70;99.90;;;;;;4715615;30;20052;-79
2021/05/28 06:19:31;;;;;;;9.65;7.65;;;10.80;99.90;;;;;;4723608;30;20378;-81
2021/05/28 06:21:58;;;;;;;9.75;7.43;;;10.90;99.90;;;;;;4730299;30;20420;-78
2021/05/28 06:24:24;;;;;;;9.25;7.53;;;11.00;99.90;;;;;;4731237;30;20056;-80
2021/05/28 06:26:51;;;;;;;9.63;7.45;;;11.10;99.90;;;;;;4730180;30;20060;-80
2021/05/28 06:29:17;;;;;;;11.77;8.65;;;11.20;99.90;;;;;;4730488;30;20509;-78
2021/05/28 06:31:44;;;;;;;8.10;7.05;;;11.40;99.90;;;;;;4745621;30;20055;-78
2021/05/28 06:34:14;;;;;;;7.47;6.32;;;11.40;99.90;;;;;;4730875;30;20048;-79
2021/05/28 06:36:40;;;;;;;8.35;7.32;;;11.50;99.90;;;;;;4744518;30;20060;-79
2021/05/28 06:39:08;;;;;;;7.53;6.72;;;11.60;99.90;;;;;;4737400;30;20043;-79
2021/05/28 06:41:36;;;;;;;6.60;5.70;;;11.80;99.90;;;;;;4731890;30;20041;-80
2021/05/28 06:44:10;;;;;;;6.60;5.97;;;11.90;99.90;;;;;;4719326;30;20044;-79
2021/05/28 06:46:39;;;;;;;10.57;6.90;;;12.20;99.90;;;;;;4743560;30;20044;-81
2021/05/28 06:49:05;;;;;;;8.80;5.68;;;12.20;99.90;;;;;;4717229;30;20144;-80
2021/05/28 06:51:32;;;;;;;5.90;5.30;;;12.30;99.90;;;;;;4718709;30;20055;-80
2021/05/28 06:53:58;;;;;;;6.78;5.35;;;12.30;99.90;;;;;;4746358;30;20040;-80
2021/05/28 06:56:25;;;;;;;6.50;5.10;;;12.20;99.90;;;;;;4729944;30;20060;-80
2021/05/28 06:58:52;;;;;;;6.68;5.32;;;12.20;99.90;;;;;;4704174;30;20056;-80
2021/05/28 07:01:21;;;;;;;8.25;6.50;;;12.30;99.90;;;;;;4730672;30;20040;-80
2021/05/28 07:03:48;;;;;;;7.75;6.20;;;12.40;99.90;;;;;;4716930;30;20060;-80
2021/05/28 07:06:14;;;;;;;6.80;5.72;;;12.50;99.90;;;;;;4711226;30;20045;-80
2021/05/28 07:08:41;;;;;;;6.88;5.78;;;12.60;99.90;;;;;;4728128;30;20061;-81
2021/05/28 07:11:09;;;;;;;5.65;5.03;;;12.80;99.90;;;;;;4727184;30;20049;-80
2021/05/28 07:13:36;;;;;;;5.65;4.32;;;13.00;99.90;;;;;;4711999;30;20053;-80
2021/05/28 07:16:02;;;;;;;6.15;4.82;;;13.10;99.90;;;;;;4725540;30;20064;-80
2021/05/28 07:18:29;;;;;;;5.05;4.55;;;13.40;99.90;;;;;;4713707;30;20040;-80
2021/05/28 07:20:55;;;;;;;4.30;3.90;;;13.60;99.90;;;;;;4727779;30;20048;-81
2021/05/28 07:23:23;;;;;;;3.85;3.38;;;13.80;99.90;;;;;;4725828;30;20505;-80
2021/05/28 07:25:50;;;;;;;6.97;4.15;;;14.00;99.90;;;;;;4731372;30;20073;-80
2021/05/28 07:28:17;;;;;;;4.40;3.50;;;14.20;99.90;;;;;;4686521;30;20063;-78
2021/05/28 07:30:47;;;;;;;4.40;3.38;;;14.40;99.90;;;;;;4725646;30;20047;-78
2021/05/28 07:33:14;;;;;;;3.63;2.90;;;14.60;99.90;;;;;;4702669;30;20052;-79
2021/05/28 07:35:40;;;;;;;4.63;3.03;;;14.70;99.80;;;;;;4716387;30;20442;-78
2021/05/28 07:38:07;;;;;;;4.03;3.15;;;14.80;99.50;;;;;;4727321;30;20037;-78
2021/05/28 07:40:34;;;;;;;2.75;2.15;;;14.90;99.00;;;;;;4728167;30;20055;-78
2021/05/28 07:43:01;;;;;;;3.13;2.78;;;15.00;98.60;;;;;;4712344;30;20363;-78
2021/05/28 07:45:27;;;;;;;3.63;2.65;;;15.10;98.50;;;;;;4725572;30;20044;-77
2021/05/28 07:47:55;;;;;;;3.75;3.45;;;15.30;98.40;;;;;;4727291;30;20056;-80
2021/05/28 07:50:22;;;;;;;4.95;3.40;;;15.30;98.10;;;;;;4727224;30;21264;-80
2021/05/28 07:52:49;;;;;;;4.53;3.90;;;15.40;97.90;;;;;;4716835;30;20063;-80
2021/05/28 07:55:16;;;;;;;5.57;4.25;;;15.50;97.50;;;;;;4713678;30;20052;-79
2021/05/28 07:57:42;;;;;;;3.83;3.08;;;15.50;97.40;;;;;;4713815;30;20064;-80
2021/05/28 08:00:16;;;;;;;3.90;3.50;;;15.60;97.40;;;;;;4726988;30;20057;-80
2021/05/28 08:02:46;;;;;;;5.38;3.25;;;15.80;97.40;;;;;;4725830;30;20053;-80
2021/05/28 08:05:13;;;;;;;3.28;2.83;;;15.90;97.10;;;;;;4731011;30;20056;-80
2021/05/28 08:07:40;;;;;;;5.82;3.53;;;16.00;96.80;;;;;;4730540;30;20040;-80
2021/05/28 08:10:07;;;;;;;3.72;2.92;;;16.10;95.90;;;;;;4731862;30;20064;-80
2021/05/28 08:12:33;;;;;;;4.75;3.05;;;16.20;96.00;;;;;;4730104;30;20055;-79
2021/05/28 08:15:00;;;;;;;4.60;3.33;;;16.30;95.20;;;;;;4744835;30;20060;-80
2021/05/28 08:17:27;;;;;;;4.25;3.60;;;16.30;94.50;;;;;;4736041;30;20420;-80
2021/05/28 08:19:53;;;;;;;3.55;3.00;;;16.20;93.80;;;;;;4749243;30;20572;-80
2021/05/28 08:22:20;;;;;;;6.35;3.53;;;16.30;94.40;;;;;;4739489;30;20045;-80
2021/05/28 08:24:46;;;;;;;3.67;3.38;;;16.40;94.40;;;;;;4746736;30;20059;-80
2021/05/28 08:27:13;;;;;;;5.57;3.60;;;16.60;94.80;;;;;;4732708;30;20484;-80
2021/05/28 08:29:39;;;;;;;5.10;4.60;;;16.80;94.60;;;;;;4722831;30;20040;-78
2021/05/28 08:32:06;;;;;;;4.32;3.67;;;16.90;93.90;;;;;;4736561;30;20509;-80
2021/05/28 08:34:32;;;;;;;3.72;3.10;;;16.90;93.40;;;;;;4732585;30;20052;-79
2021/05/28 08:36:59;;;;;;;3.63;3.10;;;17.00;93.70;;;;;;4731322;30;20060;-79
2021/05/28 08:39:25;;;;;;;3.30;3.00;;;17.10;93.60;;;;;;4747633;30;20051;-80
2021/05/28 08:41:54;;;;;;;5.10;2.83;;;17.20;93.60;;;;;;4747506;30;20044;-79
2021/05/28 08:44:24;;;;;;;3.90;3.00;;;17.30;93.40;;;;;;4721601;30;20051;-79
2021/05/28 08:46:52;;;;;;;3.53;3.15;;;17.30;92.90;;;;;;4743666;30;20048;-80
2021/05/28 08:49:20;;;;;;;3.72;3.13;;;17.40;92.80;;;;;;4735490;30;20059;-79
2021/05/28 08:51:47;;;;;;;5.28;3.92;;;17.50;92.30;;;;;;4747422;30;20063;-79
2021/05/28 08:54:14;;;;;;;3.25;2.70;;;17.50;91.50;;;;;;4748609;30;20070;-79
2021/05/28 08:56:40;;;;;;;3.45;2.45;;;17.50;92.10;;;;;;4744716;30;20051;-80
2021/05/28 08:59:07;;;;;;;5.05;3.92;;;17.60;92.20;;;;;;4731677;30;20378;-82
2021/05/28 09:01:34;;;;;;;4.20;3.80;;;17.70;91.20;;;;;;4746828;30;20056;-81
2021/05/28 09:04:05;;;;;;;5.00;3.38;;;17.80;90.60;;;;;;4736896;30;20040;-82
2021/05/28 09:06:43;;;;;;;4.43;3.58;;;17.90;90.30;;;;;;4742787;30;20048;-81
2021/05/28 09:09:15;;;;;;;4.57;3.55;;;18.00;90.50;;;;;;4747640;30;20424;-82
2021/05/28 09:11:58;;;;;;;4.93;3.83;;;18.10;90.30;;;;;;4731896;30;20108;-81
2021/05/28 09:14:41;;;;;;;7.93;5.78;;;18.20;90.50;;;;;;4746730;30;20460;-81
2021/05/28 09:17:11;;;;;;;7.53;4.70;;;18.40;90.40;;;;;;4715761;30;20057;-81
2021/05/28 09:19:39;;;;;;;5.88;4.47;;;18.50;90.40;;;;;;4720169;30;20048;-82
2021/05/28 09:22:10;;;;;;;7.03;6.18;;;18.60;90.50;;;;;;4718150;30;20048;-82
2021/05/28 09:24:45;;;;;;;6.63;5.47;;;18.70;90.10;;;;;;4745563;30;20063;-82
2021/05/28 09:27:24;;;;;;;5.47;4.68;;;18.80;90.20;;;;;;4731983;30;20044;-82
2021/05/28 09:30:00;;;;;;;5.60;3.88;;;18.80;88.40;;;;;;4721996;30;20056;-82
2021/05/28 09:32:29;;;;;;;5.35;3.80;;;18.90;86.90;;;;;;4738763;30;20397;-82
2021/05/28 09:34:55;;;;;;;5.63;3.95;;;19.00;87.60;;;;;;4745984;30;20052;-82
2021/05/28 09:37:41;;;;;;;4.40;4.00;;;19.00;85.40;;;;;;4746292;30;20052;-82
2021/05/28 09:40:17;;;;;;;4.60;3.75;;;19.00;85.60;;;;;;4746888;30;20044;-82
2021/05/28 09:42:51;;;;;;;4.35;3.13;;;19.10;85.60;;;;;;4718142;30;20044;-82
2021/05/28 09:45:38;;;;;;;3.35;2.88;;;19.20;85.80;;;;;;4744963;30;20040;-82
2021/05/28 09:48:21;;;;;;;3.40;1.95;;;19.40;85.80;;;;;;4732312;30;20070;-82
2021/05/28 09:50:52;;;;;;;4.57;3.90;;;19.60;85.60;;;;;;4746530;30;20497;-80
2021/05/28 09:53:44;;;;;;;5.15;3.13;;;19.70;83.10;;;;;;4748051;30;20048;-82
2021/05/28 09:56:34;;;;;;;1.95;1.58;;;19.80;83.40;;;;;;4727777;30;20055;-82
2021/05/28 09:59:20;;;;;;;2.80;2.20;;;20.00;84.00;;;;;;4718747;30;20056;-83
2021/05/28 10:02:02;;;;;;;2.83;2.25;;;20.10;83.70;;;;;;4721418;30;20071;-83
2021/05/28 10:04:30;;;;;;;3.80;2.60;;;20.30;83.70;;;;;;4711303;30;20052;-83
2021/05/28 10:06:57;;;;;;;2.80;2.40;;;20.50;82.50;;;;;;4719689;30;20060;-84
2021/05/28 10:09:25;;;;;;;4.32;2.80;;;20.60;81.30;;;;;;4707749;30;20064;-83
2021/05/28 10:11:52;;;;;;;4.25;2.75;;;20.60;80.90;;;;;;4724126;30;20044;-83
2021/05/28 10:14:19;;;;;;;2.72;2.22;;;20.70;79.20;;;;;;4724401;30;20060;-83
2021/05/28 10:16:46;;;;;;;2.90;1.65;;;20.70;76.70;;;;;;4719283;30;20053;-83
2021/05/28 10:19:13;;;;;;;2.35;1.35;;;20.70;75.90;;;;;;4726668;30;20057;-83
2021/05/28 10:21:41;;;;;;;4.10;1.65;;;20.70;76.10;;;;;;4722659;30;20062;-82
2021/05/28 10:24:08;;;;;;;1.92;1.73;;;20.70;76.10;;;;;;4703632;30;20512;-83
2021/05/28 10:26:35;;;;;;;3.13;1.02;;;20.90;76.70;;;;;;4719314;30;20051;-84
2021/05/28 10:29:03;;;;;;;1.40;0.93;;;21.10;76.50;;;;;;4711372;30;20102;-82
2021/05/28 10:31:50;;;;;;;2.22;1.40;;;21.40;75.40;;;;;;4744599;30;20052;-81
2021/05/28 10:34:17;;;;;;;1.73;0.90;;;21.50;73.20;;;;;;4743348;30;20067;-81
2021/05/28 10:36:48;;;;;;;2.35;0.88;;;21.60;72.50;;;;;;4741470;30;20889;-83
2021/05/28 10:39:16;;;;;;;1.30;0.80;;;21.70;72.20;;;;;;4730736;30;20055;-80
2021/05/28 10:41:55;;;;;;;1.35;0.85;;;21.80;71.90;;;;;;4744988;30;20056;-79
2021/05/28 10:44:25;;;;;;;1.27;0.77;;;22.00;71.30;;;;;;4719590;30;20048;-79
2021/05/28 10:46:54;;;;;;;2.15;1.00;;;22.20;70.80;;;;;;4742470;30;20520;-79
2021/05/28 10:49:43;;;;;;;10.60;9.50;;;22.50;70.70;;;;;;4743540;30;20052;-79
2021/05/28 10:52:13;;;;;;;3.17;2.35;;;22.80;69.70;;;;;;4734774;30;20036;-79
2021/05/28 10:54:43;;;;;;;2.60;1.10;;;23.00;69.00;;;;;;4733704;30;20059;-77
2021/05/28 10:57:23;;;;;;;2.85;0.70;;;23.30;67.50;;;;;;4727391;30;20500;-83
2021/05/28 10:59:57;;;;;;;0.90;0.52;;;23.60;64.80;;;;;;4747625;30;20052;-78
2021/05/28 11:02:47;;;;;;;1.38;0.50;;;23.80;61.10;;;;;;4730749;30;20047;-78
2021/05/28 11:05:34;;;;;;;0.88;0.50;;;23.80;60.60;;;;;;4706529;30;1089897;-80
2021/05/28 11:08:00;;;;;;;1.95;0.70;;;23.90;61.10;;;;;;4743517;30;20052;-78
2021/05/28 11:10:27;;;;;;;1.23;0.50;;;24.10;58.20;;;;;;4731199;30;20052;-79
2021/05/28 11:12:54;;;;;;;1.63;0.60;;;24.30;59.90;;;;;;4745108;30;20581;-80
2021/05/28 11:15:30;;;;;;;2.78;1.23;;;24.50;59.20;;;;;;4735267;30;20063;-81
2021/05/28 11:17:58;;;;;;;2.15;0.85;;;24.80;54.40;;;;;;4725647;30;20056;-80
2021/05/28 11:20:34;;;;;;;2.58;0.60;;;24.60;53.30;;;;;;4734432;30;20051;-80
2021/05/28 11:23:09;;;;;;;1.75;1.35;;;24.70;55.00;;;;;;4745110;30;20055;-80
2021/05/28 11:25:47;;;;;;;1.33;0.60;;;24.80;54.60;;;;;;4717195;30;20059;-80
2021/05/28 11:28:14;;;;;;;1.15;0.65;;;25.20;54.30;;;;;;4730404;30;20043;-80
2021/05/28 11:30:46;;;;;;;1.00;0.50;;;25.50;53.70;;;;;;4736578;30;20055;-80
2021/05/28 11:33:44;;;;;;;2.70;0.98;;;25.80;52.20;;;;;;4747794;30;20515;-79
2021/05/28 11:36:18;;;;;;;1.52;0.50;;;26.00;50.20;;;;;;4739967;30;20405;-78
2021/05/28 11:38:57;;;;;;;1.50;0.60;;;26.10;49.80;;;;;;4741399;30;20048;-79
2021/05/28 11:41:46;;;;;;;1.42;0.50;;;26.40;50.20;;;;;;4726721;30;20047;-78
2021/05/28 11:44:14;;;;;;;2.35;0.57;;;26.80;48.20;;;;;;4741194;30;20048;-79
2021/05/28 11:46:43;;;;;;;1.15;0.50;;;27.00;48.00;;;;;;4738052;30;20040;-79
2021/05/28 11:49:10;;;;;;;0.88;0.40;;;27.30;47.20;;;;;;4729244;30;20043;-79
2021/05/28 11:51:37;;;;;;;1.63;0.50;;;27.60;45.30;;;;;;4742440;30;20499;-79
2021/05/28 11:54:24;;;;;;;1.92;0.40;;;27.90;45.50;;;;;;4713394;30;20060;-79
2021/05/28 11:57:03;;;;;;;1.10;0.50;;;28.20;43.90;;;;;;4740930;30;20947;-79
2021/05/28 11:59:52;;;;;;;1.50;0.60;;;28.40;44.00;;;;;;4742071;30;20133;-79
2021/05/28 12:02:46;;;;;;;1.13;0.50;;;28.70;41.70;;;;;;4744705;30;20044;-79
2021/05/28 12:05:23;;;;;;;1.25;0.57;;;28.60;40.30;;;;;;4737219;30;20063;-78
2021/05/28 12:07:51;;;;;;;0.90;0.50;;;28.40;41.40;;;;;;4727523;30;20505;-78
2021/05/28 12:10:19;;;;;;;1.55;0.55;;;28.50;41.60;;;;;;4741028;30;20048;-78
2021/05/28 12:12:51;;;;;;;0.90;0.40;;;28.70;40.40;;;;;;4730570;30;20055;-79
2021/05/28 12:15:19;;;;;;;0.50;0.40;;;28.80;40.40;;;;;;4741525;30;20539;-78
2021/05/28 12:17:46;;;;;;;1.67;0.50;;;29.10;40.80;;;;;;4742249;30;20058;-78
2021/05/28 12:20:23;;;;;;;1.10;0.50;;;29.40;39.40;;;;;;4743458;30;20040;-78
2021/05/28 12:23:22;;;;;;;2.30;0.63;;;29.40;37.40;;;;;;4743521;30;20040;-79
2021/05/28 12:25:56;;;;;;;1.75;0.80;;;29.40;38.10;;;;;;4731495;30;20048;-79
2021/05/28 12:28:34;;;;;;;1.38;0.55;;;29.50;38.70;;;;;;4740890;30;20059;-79
2021/05/28 12:31:28;;;;;;;2.20;0.50;;;29.90;38.20;;;;;;4726150;30;20370;-79
2021/05/28 12:34:06;;;;;;;2.00;0.50;;;30.10;36.70;;;;;;4741388;30;20036;-77
2021/05/28 12:36:34;;;;;;;1.20;0.40;;;30.00;36.30;;;;;;4740056;30;20052;-77
2021/05/28 12:39:06;;;;;;;1.88;0.50;;;30.30;37.50;;;;;;4711074;30;20057;-77
2021/05/28 12:41:34;;;;;;;0.50;0.32;;;30.60;36.20;;;;;;4742323;30;20048;-77
2021/05/28 12:44:02;;;;;;;1.70;0.50;;;30.70;35.60;;;;;;4742258;30;20051;-77
2021/05/28 12:46:35;;;;;;;3.47;0.50;;;30.70;34.50;;;;;;4737670;30;20040;-77
2021/05/28 12:49:09;;;;;;;1.27;0.40;;;30.70;34.70;;;;;;4742764;30;20057;-77
2021/05/28 12:51:43;;;;;;;0.85;0.30;;;30.90;35.30;;;;;;4726057;30;20618;-78
2021/05/28 12:54:27;;;;;;;2.17;0.40;;;31.30;35.30;;;;;;4742051;30;20067;-79
2021/05/28 12:56:59;;;;;;;1.08;0.40;;;31.50;32.80;;;;;;4741399;30;20082;-79